createdAt,value
2019-04-16T00:01:50.639Z,14.49
2019-04-16T00:04:37.838Z,14.47
2019-04-16T00:07:25.694Z,14.45
2019-04-16T00:10:04.248Z,14.45
2019-04-16T00:12:48.340Z,14.45
2019-04-16T00:15:17.529Z,14.44
2019-04-16T00:17:47.257Z,14.43
2019-04-16T00:20:17.070Z,14.42
2019-04-16T00:22:52.904Z,14.40
2019-04-16T00:25:21.766Z,14.40
2019-04-16T00:27:50.784Z,14.38
2019-04-16T00:30:19.871Z,14.33
2019-04-16T00:32:48.723Z,14.28
2019-04-16T00:35:17.584Z,14.27
2019-04-16T00:37:46.377Z,14.25
2019-04-16T00:40:15.388Z,14.23
2019-04-16T00:42:44.511Z,14.21
2019-04-16T00:45:13.733Z,14.20
2019-04-16T00:47:42.757Z,14.20
2019-04-16T00:50:11.785Z,14.19
2019-04-16T00:52:40.849Z,14.19
2019-04-16T00:55:13.619Z,14.14
2019-04-16T00:57:40.907Z,14.11
2019-04-16T01:00:09.886Z,14.10
2019-04-16T01:02:38.750Z,14.11
2019-04-16T01:05:07.548Z,14.10
2019-04-16T01:07:36.892Z,14.11
2019-04-16T01:10:05.789Z,14.07
2019-04-16T01:12:34.578Z,14.02
2019-04-16T01:15:03.598Z,14.04
2019-04-16T01:17:33.487Z,14.04
2019-04-16T01:20:03.651Z,14.01
2019-04-16T01:22:32.663Z,14.00
2019-04-16T01:25:01.724Z,14.02
2019-04-16T01:27:33.939Z,14.01
2019-04-16T01:30:05.933Z,14.01
2019-04-16T01:32:51.214Z,14.03
2019-04-16T01:35:51.076Z,14.02
2019-04-16T01:38:37.802Z,13.97
2019-04-16T01:41:12.078Z,13.96
2019-04-16T01:43:41.126Z,13.94
2019-04-16T01:46:10.093Z,13.93
2019-04-16T01:48:39.815Z,13.92
2019-04-16T01:51:08.882Z,13.90
2019-04-16T01:53:38.078Z,13.86
2019-04-16T01:56:07.162Z,13.84
2019-04-16T01:58:37.012Z,13.83
2019-04-16T02:01:08.061Z,13.82
2019-04-16T02:03:36.647Z,13.77
2019-04-16T02:06:05.660Z,13.72
2019-04-16T02:08:34.683Z,13.68
2019-04-16T02:11:03.581Z,13.69
2019-04-16T02:13:32.627Z,13.68
2019-04-16T02:16:01.607Z,13.70
2019-04-16T02:18:30.673Z,13.69
2019-04-16T02:20:59.936Z,13.67
2019-04-16T02:23:29.060Z,13.59
2019-04-16T02:25:58.049Z,13.56
2019-04-16T02:28:28.437Z,13.55
2019-04-16T02:30:57.710Z,13.53
2019-04-16T02:33:26.871Z,13.52
2019-04-16T02:35:55.778Z,13.50
2019-04-16T02:38:24.846Z,13.47
2019-04-16T02:40:53.842Z,13.45
2019-04-16T02:43:22.854Z,13.45
2019-04-16T02:45:56.331Z,13.41
2019-04-16T02:48:22.479Z,13.39
2019-04-16T02:50:54.478Z,13.36
2019-04-16T02:53:58.495Z,13.38
2019-04-16T02:56:42.982Z,13.35
2019-04-16T02:59:15.514Z,13.33
2019-04-16T03:02:02.231Z,13.28
2019-04-16T03:04:37.159Z,13.29
2019-04-16T03:07:06.150Z,13.24
2019-04-16T03:09:39.767Z,13.28
2019-04-16T03:12:05.575Z,13.21
2019-04-16T03:14:34.445Z,13.21
2019-04-16T03:17:22.238Z,13.18
2019-04-16T03:19:52.077Z,13.16
2019-04-16T03:22:21.079Z,13.18
2019-04-16T03:24:50.138Z,13.21
2019-04-16T03:27:21.919Z,13.18
2019-04-16T03:29:49.722Z,13.19
2019-04-16T03:32:18.582Z,13.17
2019-04-16T03:34:50.579Z,13.13
2019-04-16T03:37:18.383Z,13.14
2019-04-16T03:39:47.528Z,13.15
2019-04-16T03:42:16.543Z,13.12
2019-04-16T03:44:45.543Z,13.13
2019-04-16T03:47:15.763Z,13.14
2019-04-16T03:49:45.461Z,13.09
2019-04-16T03:52:14.497Z,13.07
2019-04-16T03:54:43.507Z,13.05
2019-04-16T03:57:12.508Z,13.05
2019-04-16T03:59:41.741Z,13.03
2019-04-16T04:02:10.732Z,13.07
2019-04-16T04:04:39.778Z,13.05
2019-04-16T04:07:11.829Z,13.06
2019-04-16T04:09:39.838Z,13.03
2019-04-16T04:12:09.612Z,13.04
2019-04-16T04:14:39.793Z,13.05
2019-04-16T04:17:09.504Z,13.07
2019-04-16T04:19:38.514Z,13.08
2019-04-16T04:22:07.521Z,13.08
2019-04-16T04:24:36.860Z,13.07
2019-04-16T04:27:05.915Z,13.08
2019-04-16T04:29:34.953Z,13.09
2019-04-16T04:32:04.304Z,13.09
2019-04-16T04:34:33.366Z,13.09
2019-04-16T04:37:02.381Z,13.09
2019-04-16T04:39:31.260Z,13.08
2019-04-16T04:42:00.034Z,13.11
2019-04-16T04:44:28.951Z,13.10
2019-04-16T04:46:57.996Z,13.13
2019-04-16T04:49:30.069Z,13.11
2019-04-16T04:51:57.901Z,13.09
2019-04-16T04:54:26.833Z,13.09
2019-04-16T04:56:56.423Z,13.10
2019-04-16T04:59:26.715Z,13.12
2019-04-16T05:01:55.497Z,13.11
2019-04-16T05:04:40.557Z,13.14
2019-04-16T05:07:10.064Z,13.13
2019-04-16T05:09:39.467Z,13.14
2019-04-16T05:12:08.653Z,13.14
2019-04-16T05:14:41.066Z,13.13
2019-04-16T05:17:10.264Z,13.15
2019-04-16T05:19:39.222Z,13.18
2019-04-16T05:22:08.932Z,13.17
2019-04-16T05:24:37.878Z,13.16
2019-04-16T05:27:08.605Z,13.17
2019-04-16T05:29:37.966Z,13.20
2019-04-16T05:32:06.896Z,13.21
2019-04-16T05:34:37.489Z,13.21
2019-04-16T05:37:07.682Z,13.23
2019-04-16T05:39:36.912Z,13.26
2019-04-16T05:42:05.752Z,13.27
2019-04-16T05:44:35.501Z,13.29
2019-04-16T05:47:04.277Z,13.33
2019-04-16T05:49:33.309Z,13.33
2019-04-16T05:52:03.820Z,13.36
2019-04-16T05:54:50.599Z,13.38
2019-04-16T05:57:27.849Z,13.46
2019-04-16T05:59:56.810Z,13.47
2019-04-16T06:02:42.477Z,13.50
2019-04-16T06:05:11.602Z,13.53
2019-04-16T06:07:40.437Z,13.55
2019-04-16T06:10:09.382Z,13.60
2019-04-16T06:12:58.672Z,13.64
2019-04-16T06:15:35.941Z,13.68
2019-04-16T06:18:26.650Z,13.73
2019-04-16T06:21:29.479Z,13.78
2019-04-16T06:24:36.074Z,13.82
2019-04-16T06:27:30.297Z,13.88
2019-04-16T06:30:26.981Z,13.94
2019-04-16T06:32:58.714Z,13.97
2019-04-16T06:35:50.021Z,14.01
2019-04-16T06:38:31.747Z,14.06
2019-04-16T06:41:12.758Z,14.10
2019-04-16T06:43:48.109Z,14.09
2019-04-16T06:46:27.975Z,14.06
2019-04-16T06:49:34.331Z,14.08
2019-04-16T06:52:19.388Z,14.13
2019-04-16T06:55:00.520Z,14.20
2019-04-16T06:57:49.172Z,14.26
2019-04-16T07:00:35.631Z,14.33
2019-04-16T07:03:25.858Z,14.40
2019-04-16T07:06:20.740Z,14.45
2019-04-16T07:09:05.905Z,14.50
2019-04-16T07:11:36.550Z,14.56
2019-04-16T07:14:06.189Z,14.60
2019-04-16T07:16:35.280Z,14.65
2019-04-16T07:19:04.375Z,14.69
2019-04-16T07:21:33.177Z,14.71
2019-04-16T07:24:02.330Z,14.79
2019-04-16T07:26:31.673Z,14.87
2019-04-16T07:29:07.308Z,14.93
2019-04-16T07:32:01.073Z,14.97
2019-04-16T07:34:49.011Z,14.99
2019-04-16T07:37:37.894Z,15.05
2019-04-16T07:40:35.031Z,15.09
2019-04-16T07:43:16.327Z,15.20
2019-04-16T07:45:52.333Z,15.26
2019-04-16T07:48:40.334Z,15.33
2019-04-16T07:51:22.955Z,15.36
2019-04-16T07:54:13.674Z,15.46
2019-04-16T07:56:45.394Z,15.51
2019-04-16T07:59:14.387Z,15.57
2019-04-16T08:01:44.152Z,15.62
2019-04-16T08:04:14.066Z,15.67
2019-04-16T08:06:46.210Z,15.72
2019-04-16T08:09:13.988Z,15.78
2019-04-16T08:11:43.087Z,15.84
2019-04-16T08:14:14.636Z,15.90
2019-04-16T08:16:47.741Z,15.94
2019-04-16T08:19:15.316Z,15.96
2019-04-16T08:21:44.641Z,15.95
2019-04-16T08:24:24.401Z,16.00
2019-04-16T08:26:50.149Z,16.04
2019-04-16T08:29:19.004Z,16.09
2019-04-16T08:31:49.234Z,16.12
2019-04-16T08:34:17.447Z,16.13
2019-04-16T08:36:46.602Z,16.15
2019-04-16T08:39:16.448Z,16.20
2019-04-16T08:41:45.608Z,16.24
2019-04-16T08:44:14.655Z,16.34
2019-04-16T08:46:43.820Z,16.36
2019-04-16T08:49:14.848Z,16.29
2019-04-16T08:51:44.410Z,16.34
2019-04-16T08:54:17.794Z,16.40
2019-04-16T08:56:44.309Z,16.51
2019-04-16T08:59:13.141Z,16.56
2019-04-16T09:01:42.235Z,16.59
2019-04-16T09:04:11.254Z,16.62
2019-04-16T09:06:42.598Z,16.63
2019-04-16T09:09:38.614Z,16.64
2019-04-16T09:12:09.653Z,16.66
2019-04-16T09:14:45.301Z,16.70
2019-04-16T09:17:20.666Z,16.76
2019-04-16T09:20:09.738Z,16.77
2019-04-16T09:22:48.777Z,16.81
2019-04-16T09:25:28.395Z,16.87
2019-04-16T09:28:07.300Z,16.85
2019-04-16T09:30:59.496Z,16.84
2019-04-16T09:33:47.445Z,16.88
2019-04-16T09:36:39.128Z,16.87
2019-04-16T09:39:21.454Z,16.82
2019-04-16T09:41:51.852Z,16.80
2019-04-16T09:44:20.704Z,16.83
2019-04-16T09:46:51.898Z,16.85
2019-04-16T09:49:20.275Z,16.84
2019-04-16T09:51:51.037Z,16.84
2019-04-16T09:54:19.936Z,16.86
2019-04-16T09:56:48.979Z,16.89
2019-04-16T09:59:31.519Z,16.93
2019-04-16T10:02:06.557Z,16.94
2019-04-16T10:04:35.549Z,16.99
2019-04-16T10:07:04.783Z,17.02
2019-04-16T10:09:33.642Z,17.08
2019-04-16T10:12:05.040Z,17.12
2019-04-16T10:14:33.063Z,17.14
2019-04-16T10:17:02.084Z,17.15
2019-04-16T10:19:31.126Z,17.16
2019-04-16T10:22:00.139Z,17.19
2019-04-16T10:24:46.196Z,17.25
2019-04-16T10:27:40.127Z,17.28
2019-04-16T10:30:30.040Z,17.32
2019-04-16T10:32:58.948Z,17.39
2019-04-16T10:35:27.725Z,17.40
2019-04-16T10:37:56.776Z,17.44
2019-04-16T10:40:31.797Z,17.47
2019-04-16T10:43:19.230Z,17.52
2019-04-16T10:46:09.687Z,17.45
2019-04-16T10:48:55.231Z,17.43
2019-04-16T10:51:31.384Z,17.45
2019-04-16T10:54:25.528Z,17.44
2019-04-16T10:57:12.381Z,17.40
2019-04-16T10:59:50.630Z,17.41
2019-04-16T11:02:38.800Z,17.37
2019-04-16T11:05:21.563Z,17.38
2019-04-16T11:07:50.887Z,17.38
2019-04-16T11:10:19.904Z,17.38
2019-04-16T11:12:48.805Z,17.37
2019-04-16T11:15:21.616Z,17.34
2019-04-16T11:17:50.598Z,17.33
2019-04-16T11:20:19.492Z,17.33
2019-04-16T11:22:48.901Z,17.31
2019-04-16T11:25:19.179Z,17.31
2019-04-16T11:27:47.411Z,17.37
2019-04-16T11:30:30.895Z,17.37
2019-04-16T11:33:00.244Z,17.34
2019-04-16T11:35:29.115Z,17.34
2019-04-16T11:37:58.175Z,17.29
2019-04-16T11:40:27.120Z,17.26
2019-04-16T11:42:56.058Z,17.31
2019-04-16T11:45:25.158Z,17.31
2019-04-16T11:47:54.198Z,17.27
2019-04-16T11:50:24.976Z,17.25
2019-04-16T11:52:57.283Z,17.25
2019-04-16T11:55:25.066Z,17.24
2019-04-16T11:57:53.932Z,17.27
2019-04-16T12:00:50.772Z,17.28
2019-04-16T12:03:25.300Z,17.33
2019-04-16T12:06:26.749Z,17.35
2019-04-16T12:09:02.474Z,17.38
2019-04-16T12:11:39.702Z,17.44
2019-04-16T12:14:31.006Z,17.42
2019-04-16T12:17:10.342Z,17.49
2019-04-16T12:20:13.601Z,17.43
2019-04-16T12:22:46.575Z,17.43
2019-04-16T12:25:29.272Z,17.45
2019-04-16T12:28:12.725Z,17.48
2019-04-16T12:30:55.038Z,17.50
2019-04-16T12:33:32.054Z,17.46
2019-04-16T12:36:25.985Z,17.49
2019-04-16T12:39:19.565Z,17.50
2019-04-16T12:42:00.020Z,17.48
2019-04-16T12:44:44.526Z,17.46
2019-04-16T12:47:22.360Z,17.51
2019-04-16T12:50:09.314Z,17.48
2019-04-16T12:53:06.730Z,17.47
2019-04-16T12:55:53.008Z,17.46
2019-04-16T12:58:50.388Z,17.51
2019-04-16T13:01:45.425Z,17.55
2019-04-16T13:04:25.700Z,17.55
2019-04-16T13:07:31.790Z,17.53
2019-04-16T13:10:14.375Z,17.54
2019-04-16T13:13:02.552Z,17.54
2019-04-16T13:15:53.456Z,17.51
2019-04-16T13:18:36.790Z,17.56
2019-04-16T13:21:20.053Z,17.58
2019-04-16T13:24:20.146Z,17.59
2019-04-16T13:27:11.590Z,17.58
2019-04-16T13:29:40.599Z,17.60
2019-04-16T13:32:09.591Z,17.61
2019-04-16T13:34:38.531Z,17.64
2019-04-16T13:37:07.418Z,17.66
2019-04-16T13:39:54.021Z,17.73
2019-04-16T13:42:23.082Z,17.95
2019-04-16T13:44:57.454Z,18.07
2019-04-16T13:47:26.596Z,18.04
2019-04-16T13:50:12.075Z,18.08
2019-04-16T13:52:41.578Z,18.06
2019-04-16T13:55:25.139Z,18.03
2019-04-16T13:58:01.192Z,18.02
2019-04-16T14:00:49.216Z,18.01
2019-04-16T14:03:20.891Z,18.04
2019-04-16T14:05:50.341Z,18.07
2019-04-16T14:08:19.312Z,18.10
2019-04-16T14:10:48.209Z,18.08
2019-04-16T14:13:17.316Z,18.08
2019-04-16T14:15:46.518Z,18.16
2019-04-16T14:18:15.300Z,18.24
2019-04-16T14:20:44.341Z,18.27
2019-04-16T14:23:13.358Z,18.24
2019-04-16T14:25:42.927Z,18.25
2019-04-16T14:28:11.927Z,18.29
2019-04-16T14:30:45.942Z,18.32
2019-04-16T14:33:18.493Z,18.33
2019-04-16T14:35:47.400Z,18.37
2019-04-16T14:38:26.232Z,18.44
2019-04-16T14:40:55.049Z,18.40
2019-04-16T14:43:30.149Z,18.44
2019-04-16T14:46:00.550Z,18.47
2019-04-16T14:48:29.790Z,18.51
2019-04-16T14:50:58.894Z,18.54
2019-04-16T14:53:37.338Z,18.57
2019-04-16T14:56:17.097Z,18.60
2019-04-16T14:59:26.674Z,18.63
2019-04-16T15:01:49.321Z,18.66
2019-04-16T15:04:43.168Z,18.67
2019-04-16T15:07:31.964Z,18.69
2019-04-16T15:10:12.853Z,18.78
2019-04-16T15:12:49.150Z,18.77
2019-04-16T15:15:46.194Z,18.82
2019-04-16T15:18:36.896Z,18.82
2019-04-16T15:21:23.697Z,18.81
2019-04-16T15:24:10.192Z,18.88
2019-04-16T15:26:57.080Z,18.93
2019-04-16T15:29:46.585Z,18.96
2019-04-16T15:32:42.406Z,18.99
2019-04-16T15:35:15.087Z,18.97
2019-04-16T15:38:08.305Z,18.97
2019-04-16T15:40:40.476Z,19.03
2019-04-16T15:43:25.186Z,19.04
2019-04-16T15:46:26.398Z,19.06
2019-04-16T15:49:09.447Z,19.13
2019-04-16T15:51:56.223Z,19.11
2019-04-16T15:54:42.849Z,19.18
2019-04-16T15:57:40.066Z,19.16
2019-04-16T16:00:26.892Z,19.17
2019-04-16T16:03:13.620Z,19.20
2019-04-16T16:05:46.649Z,19.22
2019-04-16T16:08:30.499Z,19.24
2019-04-16T16:11:02.087Z,19.23
2019-04-16T16:13:30.948Z,19.25
2019-04-16T16:15:59.957Z,19.27
2019-04-16T16:18:28.934Z,19.26
2019-04-16T16:20:57.963Z,19.27
2019-04-16T16:23:27.064Z,19.30
2019-04-16T16:25:56.222Z,19.29
2019-04-16T16:28:25.209Z,19.29
2019-04-16T16:30:54.325Z,19.32
2019-04-16T16:33:23.362Z,19.30
2019-04-16T16:35:58.862Z,19.30
2019-04-16T16:38:23.378Z,19.29
2019-04-16T16:40:52.297Z,19.31
2019-04-16T16:43:21.556Z,19.31
2019-04-16T16:46:12.727Z,19.32
2019-04-16T16:48:41.946Z,19.32
2019-04-16T16:51:14.831Z,19.29
2019-04-16T16:53:49.728Z,19.28
2019-04-16T16:56:26.899Z,19.29
2019-04-16T16:59:17.678Z,19.24
2019-04-16T17:02:10.371Z,19.24
2019-04-16T17:04:42.959Z,19.28
2019-04-16T17:07:11.859Z,19.29
2019-04-16T17:09:40.769Z,19.29
2019-04-16T17:12:09.744Z,19.27
2019-04-16T17:14:57.794Z,19.23
2019-04-16T17:17:26.784Z,19.20
2019-04-16T17:19:55.825Z,19.17
2019-04-16T17:22:24.715Z,19.15
2019-04-16T17:24:53.820Z,19.13
2019-04-16T17:27:22.981Z,19.14
2019-04-16T17:29:51.931Z,19.11
2019-04-16T17:32:20.788Z,19.11
2019-04-16T17:34:49.948Z,19.07
2019-04-16T17:37:21.312Z,19.02
2019-04-16T17:39:52.612Z,18.97
2019-04-16T17:42:26.953Z,18.93
2019-04-16T17:45:24.689Z,18.85
2019-04-16T17:48:02.838Z,18.78
2019-04-16T17:50:51.323Z,18.72
2019-04-16T17:53:36.991Z,18.64
2019-04-16T17:56:34.123Z,18.60
2019-04-16T17:59:06.376Z,18.52
2019-04-16T18:02:06.778Z,18.47
2019-04-16T18:04:44.631Z,18.39
2019-04-16T18:07:41.943Z,18.30
2019-04-16T18:10:26.569Z,18.24
2019-04-16T18:13:00.504Z,18.17
2019-04-16T18:15:42.555Z,18.12
2019-04-16T18:18:27.797Z,18.09
2019-04-16T18:21:08.865Z,18.04
2019-04-16T18:23:54.875Z,17.99
2019-04-16T18:26:41.644Z,17.96
2019-04-16T18:29:21.354Z,17.94
2019-04-16T18:31:57.564Z,17.90
2019-04-16T18:34:51.384Z,17.87
2019-04-16T18:37:57.521Z,17.83
2019-04-16T18:41:04.285Z,17.79
2019-04-16T18:43:51.433Z,17.74
2019-04-16T18:46:31.785Z,17.69
2019-04-16T18:49:05.886Z,17.66
2019-04-16T18:51:34.757Z,17.62
2019-04-16T18:54:04.129Z,17.60
2019-04-16T18:56:33.246Z,17.59
2019-04-16T18:59:02.309Z,17.56
2019-04-16T19:01:32.570Z,17.53
2019-04-16T19:04:02.540Z,17.52
2019-04-16T19:06:31.416Z,17.51
2019-04-16T19:09:00.422Z,17.49
2019-04-16T19:11:29.354Z,17.47
2019-04-16T19:13:58.411Z,17.45
2019-04-16T19:16:27.352Z,17.43
2019-04-16T19:18:56.289Z,17.42
2019-04-16T19:21:25.312Z,17.39
2019-04-16T19:23:54.402Z,17.39
2019-04-16T19:26:24.779Z,17.36
2019-04-16T19:28:53.506Z,17.35
2019-04-16T19:31:23.824Z,17.30
2019-04-16T19:33:51.942Z,17.29
2019-04-16T19:36:27.162Z,17.26
2019-04-16T19:38:53.763Z,17.22
2019-04-16T19:41:24.283Z,17.22
2019-04-16T19:43:53.748Z,17.20
2019-04-16T19:46:23.165Z,17.20
2019-04-16T19:48:53.032Z,17.17
2019-04-16T19:51:21.939Z,17.15
2019-04-16T19:53:51.103Z,17.13
2019-04-16T19:56:20.341Z,17.12
2019-04-16T19:58:49.275Z,17.10
2019-04-16T20:01:18.169Z,17.08
2019-04-16T20:03:47.163Z,17.07
2019-04-16T20:06:16.286Z,17.05
2019-04-16T20:08:45.364Z,17.03
2019-04-16T20:11:14.745Z,17.03
2019-04-16T20:13:43.700Z,17.01
2019-04-16T20:16:12.598Z,17.00
2019-04-16T20:18:50.971Z,16.98
2019-04-16T20:24:02.803Z,16.95
2019-04-16T20:26:32.531Z,16.92
2019-04-16T20:29:02.638Z,16.90
2019-04-16T20:31:31.725Z,16.88
2019-04-16T20:34:00.722Z,16.87
2019-04-16T20:36:29.721Z,16.86
2019-04-16T20:38:58.759Z,16.84
2019-04-16T20:41:27.783Z,16.82
2019-04-16T20:43:56.758Z,16.82
2019-04-16T20:46:25.838Z,16.80
2019-04-16T20:49:07.695Z,16.78
2019-04-16T20:51:26.527Z,16.76
2019-04-16T20:53:56.609Z,16.75
2019-04-16T20:56:25.832Z,16.75
2019-04-16T20:58:54.819Z,16.72
2019-04-16T21:01:33.669Z,16.72
2019-04-16T21:04:04.515Z,16.70
2019-04-16T21:06:29.419Z,16.68
2019-04-16T21:08:58.702Z,16.67
2019-04-16T21:11:27.786Z,16.66
2019-04-16T21:13:56.713Z,16.63
2019-04-16T21:16:25.996Z,16.62
2019-04-16T21:18:55.474Z,16.61
2019-04-16T21:21:24.485Z,16.61
2019-04-16T21:23:53.395Z,16.58
2019-04-16T21:26:22.331Z,16.56
2019-04-16T21:29:14.429Z,16.56
2019-04-16T21:31:47.550Z,16.54
2019-04-16T21:34:29.773Z,16.51
2019-04-16T21:37:11.832Z,16.49
2019-04-16T21:39:47.333Z,16.48
2019-04-16T21:42:17.611Z,16.47
2019-04-16T21:44:46.623Z,16.45
2019-04-16T21:47:15.749Z,16.42
2019-04-16T21:49:45.749Z,16.41
2019-04-16T21:52:14.066Z,16.40
2019-04-16T21:54:43.099Z,16.37
2019-04-16T21:57:14.264Z,16.35
2019-04-16T21:59:43.192Z,16.35
2019-04-16T22:02:26.777Z,16.34
2019-04-16T22:04:56.158Z,16.33
2019-04-16T22:07:25.600Z,16.31
2019-04-16T22:09:54.658Z,16.29
2019-04-16T22:12:23.593Z,16.27
2019-04-16T22:14:54.475Z,16.26
2019-04-16T22:17:23.274Z,16.24
2019-04-16T22:19:54.676Z,16.24
2019-04-16T22:22:22.738Z,16.22
2019-04-16T22:24:54.813Z,16.20
2019-04-16T22:27:22.330Z,16.19
2019-04-16T22:29:51.259Z,16.16
2019-04-16T22:32:20.296Z,16.14
2019-04-16T22:34:49.301Z,16.14
2019-04-16T22:37:18.333Z,16.12
2019-04-16T22:39:59.150Z,16.12
2019-04-16T22:42:42.393Z,16.10
2019-04-16T22:45:42.496Z,16.09
2019-04-16T22:48:11.489Z,16.06
2019-04-16T22:50:40.600Z,16.02
2019-04-16T22:53:09.464Z,16.01
2019-04-16T22:55:42.350Z,15.99
2019-04-16T22:58:22.509Z,15.97
2019-04-16T23:00:51.972Z,15.95
2019-04-16T23:03:20.839Z,15.89
2019-04-16T23:05:49.931Z,15.89
2019-04-16T23:08:18.922Z,15.85
2019-04-16T23:10:50.549Z,15.86
2019-04-16T23:13:18.462Z,15.84
2019-04-16T23:15:47.541Z,15.81
2019-04-16T23:18:17.518Z,15.77
2019-04-16T23:20:47.433Z,15.77
2019-04-16T23:23:19.013Z,15.76
2019-04-16T23:25:46.986Z,15.75
2019-04-16T23:28:16.054Z,15.73
2019-04-16T23:31:04.285Z,15.72
2019-04-16T23:33:33.569Z,15.70
2019-04-16T23:36:02.580Z,15.70
2019-04-16T23:38:32.482Z,15.66
2019-04-16T23:41:01.650Z,15.68
2019-04-16T23:43:40.590Z,15.66
2019-04-16T23:46:28.486Z,15.66
2019-04-16T23:49:03.533Z,15.66
2019-04-16T23:51:39.505Z,15.67
2019-04-16T23:54:18.257Z,15.65
2019-04-16T23:56:52.884Z,15.64
2019-04-16T23:59:39.793Z,15.63
